sensor_id;sensor_type;location;lat;lon;timestamp;temperature;humidity
61000;SHT31;46879;45.658;11.814;2023-06-01T00:03:59;24.81;54.28
61000;SHT31;46879;45.658;11.814;2023-06-01T00:09:00;24.83;54.39
61000;SHT31;46879;45.658;11.814;2023-06-01T00:14:02;24.80;54.30
61000;SHT31;46879;45.658;11.814;2023-06-01T00:19:03;24.83;54.32
61000;SHT31;46879;45.658;11.814;2023-06-01T00:24:10;24.81;54.18
61000;SHT31;46879;45.658;11.814;2023-06-01T00:29:12;24.84;54.15
61000;SHT31;46879;45.658;11.814;2023-06-01T00:34:13;24.84;54.04
61000;SHT31;46879;45.658;11.814;2023-06-01T00:39:14;24.83;53.99
61000;SHT31;46879;45.658;11.814;2023-06-01T00:44:14;24.80;53.82
61000;SHT31;46879;45.658;11.814;2023-06-01T00:49:15;24.83;53.81
61000;SHT31;46879;45.658;11.814;2023-06-01T00:54:16;24.80;53.80
61000;SHT31;46879;45.658;11.814;2023-06-01T00:59:16;24.80;53.89
61000;SHT31;46879;45.658;11.814;2023-06-01T01:04:18;24.83;53.85
61000;SHT31;46879;45.658;11.814;2023-06-01T01:09:47;24.83;53.73
61000;SHT31;46879;45.658;11.814;2023-06-01T01:15:01;24.83;54.01
61000;SHT31;46879;45.658;11.814;2023-06-01T01:20:18;24.86;53.86
61000;SHT31;46879;45.658;11.814;2023-06-01T01:26:13;24.81;54.00
61000;SHT31;46879;45.658;11.814;2023-06-01T01:31:18;24.83;53.81
61000;SHT31;46879;45.658;11.814;2023-06-01T01:36:19;24.81;53.91
61000;SHT31;46879;45.658;11.814;2023-06-01T01:41:20;24.81;53.96
61000;SHT31;46879;45.658;11.814;2023-06-01T01:46:27;24.81;54.04
61000;SHT31;46879;45.658;11.814;2023-06-01T01:56:58;24.81;54.05
61000;SHT31;46879;45.658;11.814;2023-06-01T02:02:01;24.80;54.00
61000;SHT31;46879;45.658;11.814;2023-06-01T02:07:02;24.81;53.99
61000;SHT31;46879;45.658;11.814;2023-06-01T02:12:03;24.79;53.70
61000;SHT31;46879;45.658;11.814;2023-06-01T02:17:03;24.80;53.61
61000;SHT31;46879;45.658;11.814;2023-06-01T02:22:05;24.81;53.58
61000;SHT31;46879;45.658;11.814;2023-06-01T02:27:06;24.80;53.57
61000;SHT31;46879;45.658;11.814;2023-06-01T02:32:08;24.79;53.46
61000;SHT31;46879;45.658;11.814;2023-06-01T02:37:09;24.79;53.42
61000;SHT31;46879;45.658;11.814;2023-06-01T02:42:09;24.77;53.39
61000;SHT31;46879;45.658;11.814;2023-06-01T02:47:10;24.77;53.48
61000;SHT31;46879;45.658;11.814;2023-06-01T02:52:10;24.79;53.49
61000;SHT31;46879;45.658;11.814;2023-06-01T02:57:11;24.80;53.44
61000;SHT31;46879;45.658;11.814;2023-06-01T03:02:11;24.74;53.46
61000;SHT31;46879;45.658;11.814;2023-06-01T03:07:12;24.77;53.51
61000;SHT31;46879;45.658;11.814;2023-06-01T03:12:14;24.79;53.53
61000;SHT31;46879;45.658;11.814;2023-06-01T03:17:15;24.77;53.97
61000;SHT31;46879;45.658;11.814;2023-06-01T03:22:15;24.77;53.80
61000;SHT31;46879;45.658;11.814;2023-06-01T03:27:16;24.76;53.67
61000;SHT31;46879;45.658;11.814;2023-06-01T03:32:17;24.76;54.02
61000;SHT31;46879;45.658;11.814;2023-06-01T03:37:18;24.77;53.85
61000;SHT31;46879;45.658;11.814;2023-06-01T03:42:18;24.77;53.94
61000;SHT31;46879;45.658;11.814;2023-06-01T03:47:19;24.74;53.98
61000;SHT31;46879;45.658;11.814;2023-06-01T03:52:20;24.74;53.93
61000;SHT31;46879;45.658;11.814;2023-06-01T03:57:21;24.76;53.90
61000;SHT31;46879;45.658;11.814;2023-06-01T04:02:22;24.77;53.88
61000;SHT31;46879;45.658;11.814;2023-06-01T04:07:23;24.79;53.99
61000;SHT31;46879;45.658;11.814;2023-06-01T04:12:23;24.77;53.90
61000;SHT31;46879;45.658;11.814;2023-06-01T04:17:24;24.77;53.85
61000;SHT31;46879;45.658;11.814;2023-06-01T04:22:24;24.77;54.14
61000;SHT31;46879;45.658;11.814;2023-06-01T04:27:25;24.73;54.10
61000;SHT31;46879;45.658;11.814;2023-06-01T04:32:27;24.79;54.08
61000;SHT31;46879;45.658;11.814;2023-06-01T04:37:28;24.74;54.11
61000;SHT31;46879;45.658;11.814;2023-06-01T04:42:29;24.77;54.28
61000;SHT31;46879;45.658;11.814;2023-06-01T04:47:34;24.74;54.22
61000;SHT31;46879;45.658;11.814;2023-06-01T04:52:39;24.76;54.16
61000;SHT31;46879;45.658;11.814;2023-06-01T04:57:41;24.76;54.23
61000;SHT31;46879;45.658;11.814;2023-06-01T05:02:45;24.79;54.34
61000;SHT31;46879;45.658;11.814;2023-06-01T05:07:47;24.77;54.30
61000;SHT31;46879;45.658;11.814;2023-06-01T05:12:48;24.77;54.34
61000;SHT31;46879;45.658;11.814;2023-06-01T05:17:49;24.76;54.23
61000;SHT31;46879;45.658;11.814;2023-06-01T05:22:51;24.77;54.29
61000;SHT31;46879;45.658;11.814;2023-06-01T05:27:51;24.77;54.27
61000;SHT31;46879;45.658;11.814;2023-06-01T05:32:52;24.79;54.17
61000;SHT31;46879;45.658;11.814;2023-06-01T05:37:52;24.55;53.20
61000;SHT31;46879;45.658;11.814;2023-06-01T05:42:53;24.09;53.17
61000;SHT31;46879;45.658;11.814;2023-06-01T05:47:54;24.30;53.45
61000;SHT31;46879;45.658;11.814;2023-06-01T05:52:55;24.42;53.41
61000;SHT31;46879;45.658;11.814;2023-06-01T05:57:56;24.45;53.41
61000;SHT31;46879;45.658;11.814;2023-06-01T06:02:56;24.40;53.76
61000;SHT31;46879;45.658;11.814;2023-06-01T06:07:57;24.52;54.76
61000;SHT31;46879;45.658;11.814;2023-06-01T06:12:58;24.56;54.92
61000;SHT31;46879;45.658;11.814;2023-06-01T06:17:58;24.57;54.92
61000;SHT31;46879;45.658;11.814;2023-06-01T06:22:59;24.60;54.86
61000;SHT31;46879;45.658;11.814;2023-06-01T06:27:59;24.62;54.81
61000;SHT31;46879;45.658;11.814;2023-06-01T06:33:00;24.64;54.80
61000;SHT31;46879;45.658;11.814;2023-06-01T06:38:01;24.63;54.91
61000;SHT31;46879;45.658;11.814;2023-06-01T06:43:01;24.64;54.95
61000;SHT31;46879;45.658;11.814;2023-06-01T06:48:02;24.63;55.00
61000;SHT31;46879;45.658;11.814;2023-06-01T06:53:02;24.64;54.93
61000;SHT31;46879;45.658;11.814;2023-06-01T06:58:04;24.66;55.07
61000;SHT31;46879;45.658;11.814;2023-06-01T07:03:04;24.66;55.05
61000;SHT31;46879;45.658;11.814;2023-06-01T07:08:05;24.67;55.14
61000;SHT31;46879;45.658;11.814;2023-06-01T07:13:06;24.67;55.15
61000;SHT31;46879;45.658;11.814;2023-06-01T07:18:07;24.69;55.23
61000;SHT31;46879;45.658;11.814;2023-06-01T07:23:08;24.67;55.22
61000;SHT31;46879;45.658;11.814;2023-06-01T07:28:08;24.69;55.25
61000;SHT31;46879;45.658;11.814;2023-06-01T07:33:09;24.69;55.24
61000;SHT31;46879;45.658;11.814;2023-06-01T07:38:10;24.70;55.27
61000;SHT31;46879;45.658;11.814;2023-06-01T07:43:11;24.72;55.31
61000;SHT31;46879;45.658;11.814;2023-06-01T07:48:12;24.72;55.31
61000;SHT31;46879;45.658;11.814;2023-06-01T07:53:12;24.72;55.31
61000;SHT31;46879;45.658;11.814;2023-06-01T07:58:14;24.73;55.29
61000;SHT31;46879;45.658;11.814;2023-06-01T08:03:14;24.74;55.29
61000;SHT31;46879;45.658;11.814;2023-06-01T08:08:15;24.76;55.32
61000;SHT31;46879;45.658;11.814;2023-06-01T08:13:16;24.74;55.29
61000;SHT31;46879;45.658;11.814;2023-06-01T08:18:16;24.74;55.25
61000;SHT31;46879;45.658;11.814;2023-06-01T08:23:17;24.76;55.16
61000;SHT31;46879;45.658;11.814;2023-06-01T08:28:18;24.76;55.23
61000;SHT31;46879;45.658;11.814;2023-06-01T08:33:18;24.77;55.27
61000;SHT31;46879;45.658;11.814;2023-06-01T08:38:19;24.77;55.25
61000;SHT31;46879;45.658;11.814;2023-06-01T08:43:20;24.79;55.20
61000;SHT31;46879;45.658;11.814;2023-06-01T08:48:21;24.79;55.12
61000;SHT31;46879;45.658;11.814;2023-06-01T08:53:21;24.80;55.15
61000;SHT31;46879;45.658;11.814;2023-06-01T08:58:22;24.79;55.16
61000;SHT31;46879;45.658;11.814;2023-06-01T09:03:24;24.81;55.19
61000;SHT31;46879;45.658;11.814;2023-06-01T09:08:25;24.81;55.13
61000;SHT31;46879;45.658;11.814;2023-06-01T09:13:37;24.81;55.09
61000;SHT31;46879;45.658;11.814;2023-06-01T09:18:53;24.81;55.11
61000;SHT31;46879;45.658;11.814;2023-06-01T09:23:55;24.83;55.03
61000;SHT31;46879;45.658;11.814;2023-06-01T09:28:59;24.84;54.98
61000;SHT31;46879;45.658;11.814;2023-06-01T09:34:01;24.83;55.00
61000;SHT31;46879;45.658;11.814;2023-06-01T09:39:13;24.83;54.93
61000;SHT31;46879;45.658;11.814;2023-06-01T09:44:27;24.86;54.95
61000;SHT31;46879;45.658;11.814;2023-06-01T09:49:35;24.86;54.95
61000;SHT31;46879;45.658;11.814;2023-06-01T09:54:46;24.87;55.00
61000;SHT31;46879;45.658;11.814;2023-06-01T09:59:47;24.87;54.91
61000;SHT31;46879;45.658;11.814;2023-06-01T10:04:55;24.86;54.87
61000;SHT31;46879;45.658;11.814;2023-06-01T10:10:00;24.90;54.82
61000;SHT31;46879;45.658;11.814;2023-06-01T10:15:04;24.88;54.74
61000;SHT31;46879;45.658;11.814;2023-06-01T10:20:06;24.88;54.77
61000;SHT31;46879;45.658;11.814;2023-06-01T10:25:09;24.87;54.84
61000;SHT31;46879;45.658;11.814;2023-06-01T10:30:12;24.90;54.88
61000;SHT31;46879;45.658;11.814;2023-06-01T10:40:29;24.87;54.61
61000;SHT31;46879;45.658;11.814;2023-06-01T10:45:38;24.87;54.67
61000;SHT31;46879;45.658;11.814;2023-06-01T10:50:41;24.90;54.60
61000;SHT31;46879;45.658;11.814;2023-06-01T10:55:41;24.90;54.69
61000;SHT31;46879;45.658;11.814;2023-06-01T11:00:42;24.94;54.54
61000;SHT31;46879;45.658;11.814;2023-06-01T11:05:48;24.91;54.79
61000;SHT31;46879;45.658;11.814;2023-06-01T11:21:20;24.92;54.77
61000;SHT31;46879;45.658;11.814;2023-06-01T11:26:24;24.94;54.44
61000;SHT31;46879;45.658;11.814;2023-06-01T11:31:25;24.91;54.56
61000;SHT31;46879;45.658;11.814;2023-06-01T11:36:26;24.91;54.70
61000;SHT31;46879;45.658;11.814;2023-06-01T11:41:28;24.94;54.56
61000;SHT31;46879;45.658;11.814;2023-06-01T11:46:29;24.95;54.71
61000;SHT31;46879;45.658;11.814;2023-06-01T11:51:36;24.94;54.96
61000;SHT31;46879;45.658;11.814;2023-06-01T11:56:37;24.97;54.73
61000;SHT31;46879;45.658;11.814;2023-06-01T12:01:46;24.94;54.78
61000;SHT31;46879;45.658;11.814;2023-06-01T12:06:47;24.97;55.11
61000;SHT31;46879;45.658;11.814;2023-06-01T12:11:49;24.95;55.11
61000;SHT31;46879;45.658;11.814;2023-06-01T12:16:58;24.97;55.18
61000;SHT31;46879;45.658;11.814;2023-06-01T12:22:05;24.97;55.22
61000;SHT31;46879;45.658;11.814;2023-06-01T12:27:17;25.00;55.07
61000;SHT31;46879;45.658;11.814;2023-06-01T12:32:21;24.98;55.28
61000;SHT31;46879;45.658;11.814;2023-06-01T12:37:22;25.03;55.37
61000;SHT31;46879;45.658;11.814;2023-06-01T12:42:37;24.97;55.67
61000;SHT31;46879;45.658;11.814;2023-06-01T12:47:40;25.01;55.51
61000;SHT31;46879;45.658;11.814;2023-06-01T12:52:42;25.01;55.59
61000;SHT31;46879;45.658;11.814;2023-06-01T12:57:43;25.04;55.58
61000;SHT31;46879;45.658;11.814;2023-06-01T13:02:43;25.00;55.25
61000;SHT31;46879;45.658;11.814;2023-06-01T13:07:48;25.08;54.68
61000;SHT31;46879;45.658;11.814;2023-06-01T13:12:49;25.04;54.58
61000;SHT31;46879;45.658;11.814;2023-06-01T13:17:50;25.08;55.05
61000;SHT31;46879;45.658;11.814;2023-06-01T13:22:50;25.08;54.67
61000;SHT31;46879;45.658;11.814;2023-06-01T13:27:51;25.08;54.31
61000;SHT31;46879;45.658;11.814;2023-06-01T13:32:51;25.10;54.28
61000;SHT31;46879;45.658;11.814;2023-06-01T13:37:52;25.07;53.70
61000;SHT31;46879;45.658;11.814;2023-06-01T13:42:53;25.06;53.80
61000;SHT31;46879;45.658;11.814;2023-06-01T13:47:54;25.10;53.59
61000;SHT31;46879;45.658;11.814;2023-06-01T13:52:55;25.08;53.33
61000;SHT31;46879;45.658;11.814;2023-06-01T13:57:56;25.07;53.38
61000;SHT31;46879;45.658;11.814;2023-06-01T14:02:56;25.10;53.79
61000;SHT31;46879;45.658;11.814;2023-06-01T14:07:57;25.08;53.53
61000;SHT31;46879;45.658;11.814;2023-06-01T14:12:58;25.11;53.34
61000;SHT31;46879;45.658;11.814;2023-06-01T14:17:58;25.11;53.99
61000;SHT31;46879;45.658;11.814;2023-06-01T14:22:59;25.11;53.49
61000;SHT31;46879;45.658;11.814;2023-06-01T14:28:00;25.12;53.31
61000;SHT31;46879;45.658;11.814;2023-06-01T14:33:01;25.14;53.66
61000;SHT31;46879;45.658;11.814;2023-06-01T14:38:01;25.12;53.54
61000;SHT31;46879;45.658;11.814;2023-06-01T14:43:02;25.14;53.73
61000;SHT31;46879;45.658;11.814;2023-06-01T14:48:03;25.14;54.22
61000;SHT31;46879;45.658;11.814;2023-06-01T14:53:03;25.15;54.53
61000;SHT31;46879;45.658;11.814;2023-06-01T14:58:04;25.14;54.38
61000;SHT31;46879;45.658;11.814;2023-06-01T15:03:05;25.14;54.72
61000;SHT31;46879;45.658;11.814;2023-06-01T15:08:07;25.15;54.68
61000;SHT31;46879;45.658;11.814;2023-06-01T15:13:08;25.15;54.85
61000;SHT31;46879;45.658;11.814;2023-06-01T15:18:08;25.17;54.90
61000;SHT31;46879;45.658;11.814;2023-06-01T15:23:09;25.17;54.93
61000;SHT31;46879;45.658;11.814;2023-06-01T15:28:10;25.15;55.03
61000;SHT31;46879;45.658;11.814;2023-06-01T15:33:10;25.19;55.08
61000;SHT31;46879;45.658;11.814;2023-06-01T15:38:11;25.17;55.15
61000;SHT31;46879;45.658;11.814;2023-06-01T15:43:12;25.19;55.05
61000;SHT31;46879;45.658;11.814;2023-06-01T15:48:13;25.19;55.26
61000;SHT31;46879;45.658;11.814;2023-06-01T15:53:13;25.18;55.29
61000;SHT31;46879;45.658;11.814;2023-06-01T15:58:14;25.21;55.24
61000;SHT31;46879;45.658;11.814;2023-06-01T16:03:15;25.17;55.30
61000;SHT31;46879;45.658;11.814;2023-06-01T16:08:16;25.18;55.16
61000;SHT31;46879;45.658;11.814;2023-06-01T16:13:16;25.18;55.28
61000;SHT31;46879;45.658;11.814;2023-06-01T16:18:17;25.19;55.51
61000;SHT31;46879;45.658;11.814;2023-06-01T16:23:18;25.19;55.51
61000;SHT31;46879;45.658;11.814;2023-06-01T16:28:19;25.21;55.35
61000;SHT31;46879;45.658;11.814;2023-06-01T16:33:20;25.22;55.18
61000;SHT31;46879;45.658;11.814;2023-06-01T16:38:20;25.19;55.34
61000;SHT31;46879;45.658;11.814;2023-06-01T16:43:21;25.24;55.36
61000;SHT31;46879;45.658;11.814;2023-06-01T16:48:21;25.25;55.40
61000;SHT31;46879;45.658;11.814;2023-06-01T16:53:24;25.24;55.54
61000;SHT31;46879;45.658;11.814;2023-06-01T16:58:24;25.24;55.67
61000;SHT31;46879;45.658;11.814;2023-06-01T17:03:25;25.25;55.72
61000;SHT31;46879;45.658;11.814;2023-06-01T17:08:25;25.25;55.60
61000;SHT31;46879;45.658;11.814;2023-06-01T17:13:26;25.28;55.59
61000;SHT31;46879;45.658;11.814;2023-06-01T17:18:27;25.31;55.67
61000;SHT31;46879;45.658;11.814;2023-06-01T17:23:27;25.31;55.46
61000;SHT31;46879;45.658;11.814;2023-06-01T17:28:29;25.28;55.45
61000;SHT31;46879;45.658;11.814;2023-06-01T17:33:29;25.28;55.52
61000;SHT31;46879;45.658;11.814;2023-06-01T17:38:30;25.28;55.38
61000;SHT31;46879;45.658;11.814;2023-06-01T17:43:31;25.28;55.38
61000;SHT31;46879;45.658;11.814;2023-06-01T17:48:31;25.29;55.73
61000;SHT31;46879;45.658;11.814;2023-06-01T17:53:32;25.29;56.00
61000;SHT31;46879;45.658;11.814;2023-06-01T17:58:32;25.34;55.32
61000;SHT31;46879;45.658;11.814;2023-06-01T18:03:33;25.32;53.26
61000;SHT31;46879;45.658;11.814;2023-06-01T18:08:33;25.36;53.69
61000;SHT31;46879;45.658;11.814;2023-06-01T18:13:34;25.34;51.89
61000;SHT31;46879;45.658;11.814;2023-06-01T18:18:35;25.32;52.24
61000;SHT31;46879;45.658;11.814;2023-06-01T18:23:36;25.31;50.79
61000;SHT31;46879;45.658;11.814;2023-06-01T18:28:36;25.31;51.26
61000;SHT31;46879;45.658;11.814;2023-06-01T18:33:37;25.28;52.09
61000;SHT31;46879;45.658;11.814;2023-06-01T18:38:37;25.29;52.65
61000;SHT31;46879;45.658;11.814;2023-06-01T18:43:40;25.26;53.80
61000;SHT31;46879;45.658;11.814;2023-06-01T18:48:41;25.28;53.77
61000;SHT31;46879;45.658;11.814;2023-06-01T18:53:41;25.26;54.09
61000;SHT31;46879;45.658;11.814;2023-06-01T18:58:46;25.26;54.12
61000;SHT31;46879;45.658;11.814;2023-06-01T19:03:48;25.24;53.07
61000;SHT31;46879;45.658;11.814;2023-06-01T19:08:50;25.03;52.32
61000;SHT31;46879;45.658;11.814;2023-06-01T19:13:51;24.79;52.65
61000;SHT31;46879;45.658;11.814;2023-06-01T19:18:54;24.76;52.67
61000;SHT31;46879;45.658;11.814;2023-06-01T19:23:58;24.97;53.26
61000;SHT31;46879;45.658;11.814;2023-06-01T19:29:10;25.06;54.26
61000;SHT31;46879;45.658;11.814;2023-06-01T19:34:12;25.08;54.45
61000;SHT31;46879;45.658;11.814;2023-06-01T19:44:34;24.64;52.30
61000;SHT31;46879;45.658;11.814;2023-06-01T19:49:39;24.74;52.52
61000;SHT31;46879;45.658;11.814;2023-06-01T19:54:40;24.48;53.57
61000;SHT31;46879;45.658;11.814;2023-06-01T19:59:42;24.79;53.65
61000;SHT31;46879;45.658;11.814;2023-06-01T20:04:42;24.90;54.05
61000;SHT31;46879;45.658;11.814;2023-06-01T20:09:43;24.88;53.85
61000;SHT31;46879;45.658;11.814;2023-06-01T20:14:46;24.87;53.93
61000;SHT31;46879;45.658;11.814;2023-06-01T20:19:49;24.94;54.31
61000;SHT31;46879;45.658;11.814;2023-06-01T20:24:49;24.94;54.29
61000;SHT31;46879;45.658;11.814;2023-06-01T20:29:50;24.97;54.31
61000;SHT31;46879;45.658;11.814;2023-06-01T20:34:51;25.00;54.36
61000;SHT31;46879;45.658;11.814;2023-06-01T20:39:51;24.98;54.13
61000;SHT31;46879;45.658;11.814;2023-06-01T20:44:52;25.01;54.31
61000;SHT31;46879;45.658;11.814;2023-06-01T20:49:52;25.00;54.29
61000;SHT31;46879;45.658;11.814;2023-06-01T20:54:53;25.01;54.31
61000;SHT31;46879;45.658;11.814;2023-06-01T20:59:53;25.01;54.39
61000;SHT31;46879;45.658;11.814;2023-06-01T21:04:54;25.04;54.92
61000;SHT31;46879;45.658;11.814;2023-06-01T21:09:55;25.04;55.17
61000;SHT31;46879;45.658;11.814;2023-06-01T21:14:56;25.10;55.75
61000;SHT31;46879;45.658;11.814;2023-06-01T21:19:56;25.04;55.70
61000;SHT31;46879;45.658;11.814;2023-06-01T21:24:57;25.07;55.84
61000;SHT31;46879;45.658;11.814;2023-06-01T21:29:57;25.03;55.93
61000;SHT31;46879;45.658;11.814;2023-06-01T21:34:58;25.04;56.09
61000;SHT31;46879;45.658;11.814;2023-06-01T21:40:00;25.07;56.07
61000;SHT31;46879;45.658;11.814;2023-06-01T21:45:00;25.06;56.18
61000;SHT31;46879;45.658;11.814;2023-06-01T21:50:01;25.04;56.20
61000;SHT31;46879;45.658;11.814;2023-06-01T21:55:02;25.04;56.35
61000;SHT31;46879;45.658;11.814;2023-06-01T22:00:04;25.06;56.50
61000;SHT31;46879;45.658;11.814;2023-06-01T22:05:06;25.07;56.46
61000;SHT31;46879;45.658;11.814;2023-06-01T22:10:08;25.10;56.48
61000;SHT31;46879;45.658;11.814;2023-06-01T22:15:09;25.10;56.67
61000;SHT31;46879;45.658;11.814;2023-06-01T22:20:10;25.08;56.62
61000;SHT31;46879;45.658;11.814;2023-06-01T22:25:11;25.08;56.55
61000;SHT31;46879;45.658;11.814;2023-06-01T22:30:12;25.08;56.64
61000;SHT31;46879;45.658;11.814;2023-06-01T22:35:13;25.12;56.53
61000;SHT31;46879;45.658;11.814;2023-06-01T22:40:13;25.11;56.93
61000;SHT31;46879;45.658;11.814;2023-06-01T22:45:14;25.11;57.11
61000;SHT31;46879;45.658;11.814;2023-06-01T22:50:15;25.11;56.98
61000;SHT31;46879;45.658;11.814;2023-06-01T22:55:18;25.11;56.98
61000;SHT31;46879;45.658;11.814;2023-06-01T23:00:19;25.12;57.06
61000;SHT31;46879;45.658;11.814;2023-06-01T23:05:19;25.12;57.14
61000;SHT31;46879;45.658;11.814;2023-06-01T23:10:21;25.15;57.09
61000;SHT31;46879;45.658;11.814;2023-06-01T23:15:21;25.14;57.10
61000;SHT31;46879;45.658;11.814;2023-06-01T23:20:24;25.12;57.16
61000;SHT31;46879;45.658;11.814;2023-06-01T23:25:24;25.15;57.15
61000;SHT31;46879;45.658;11.814;2023-06-01T23:30:25;25.15;57.06
61000;SHT31;46879;45.658;11.814;2023-06-01T23:35:26;25.17;57.31
61000;SHT31;46879;45.658;11.814;2023-06-01T23:40:27;25.17;57.20
61000;SHT31;46879;45.658;11.814;2023-06-01T23:45:28;25.17;57.27
61000;SHT31;46879;45.658;11.814;2023-06-01T23:50:28;25.15;57.62
61000;SHT31;46879;45.658;11.814;2023-06-01T23:55:29;25.15;57.58
